Time;durP1;ratioP1;P1;durP2;ratioP2;P2;SDS_P1;SDS_P2;PMS_P1;PMS_P2;Temp;Humidity;BMP_temperature;BMP_pressure;BME280_temperature;BME280_humidity;BME280_pressure;Samples;Min_cycle;Max_cycle;Signal;HPM_P1;HPM_P2
2022/11/26 00:02:16;;;;;;;0.73;0.73;;;;;;;;;;6368841;22;20484;-76
2022/11/26 00:04:42;;;;;;;0.67;0.67;;;;;;;;;;6369367;22;20152;-75
2022/11/26 00:07:12;;;;;;;0.60;0.60;;;;;;;;;;6369576;22;20148;-75
2022/11/26 00:09:38;;;;;;;0.70;0.70;;;;;;;;;;6369999;22;20613;-75
2022/11/26 00:12:14;;;;;;;0.70;0.70;;;;;;;;;;6369176;22;20178;-75
2022/11/26 00:14:40;;;;;;;0.70;0.70;;;;;;;;;;6369636;22;20144;-75
2022/11/26 00:17:08;;;;;;;0.77;0.77;;;;;;;;;;6369931;22;20148;-75
2022/11/26 00:19:34;;;;;;;0.67;0.67;;;;;;;;;;6369373;22;20148;-76
2022/11/26 00:22:00;;;;;;;0.60;0.60;;;;;;;;;;6368861;22;20662;-76
2022/11/26 00:27:29;;;;;;;0.70;0.70;;;;;;;;;;6366483;22;20155;-74
2022/11/26 00:29:55;;;;;;;0.80;0.80;;;;;;;;;;6369259;22;20143;-74
2022/11/26 00:32:22;;;;;;;0.70;0.70;;;;;;;;;;6368136;22;20199;-74
2022/11/26 00:34:48;;;;;;;0.70;0.70;;;;;;;;;;6369058;22;20221;-75
2022/11/26 00:37:17;;;;;;;0.70;0.70;;;;;;;;;;6369239;22;20481;-74
2022/11/26 00:39:43;;;;;;;0.70;0.70;;;;;;;;;;6369453;22;20223;-74
2022/11/26 00:42:10;;;;;;;0.70;0.70;;;;;;;;;;6368846;22;20239;-75
2022/11/26 00:44:36;;;;;;;0.70;0.70;;;;;;;;;;6368981;22;20195;-75
2022/11/26 00:47:02;;;;;;;0.70;0.70;;;;;;;;;;6370045;22;20167;-76
2022/11/26 00:49:28;;;;;;;0.77;0.77;;;;;;;;;;6369117;22;20554;-76
2022/11/26 00:51:54;;;;;;;0.67;0.67;;;;;;;;;;6369287;22;20168;-77
2022/11/26 00:54:22;;;;;;;0.80;0.80;;;;;;;;;;6368076;22;20494;-76
2022/11/26 00:56:49;;;;;;;0.80;0.80;;;;;;;;;;6368534;22;20155;-76
2022/11/26 00:59:17;;;;;;;0.70;0.70;;;;;;;;;;6369190;22;20152;-77
2022/11/26 01:01:43;;;;;;;0.70;0.70;;;;;;;;;;6369157;22;20183;-77
2022/11/26 01:04:09;;;;;;;0.70;0.70;;;;;;;;;;6368467;22;20368;-76
2022/11/26 01:06:36;;;;;;;0.70;0.70;;;;;;;;;;6369108;22;20481;-76
2022/11/26 01:09:03;;;;;;;0.80;0.80;;;;;;;;;;6368672;22;20184;-75
2022/11/26 01:11:29;;;;;;;0.70;0.70;;;;;;;;;;6369106;22;20250;-75
2022/11/26 01:13:56;;;;;;;0.70;0.70;;;;;;;;;;6368496;22;20582;-75
2022/11/26 01:16:26;;;;;;;0.80;0.80;;;;;;;;;;6369504;22;20193;-75
2022/11/26 01:18:54;;;;;;;0.60;0.60;;;;;;;;;;6369136;22;20152;-75
2022/11/26 01:21:20;;;;;;;0.80;0.80;;;;;;;;;;6368420;22;20262;-75
2022/11/26 01:23:46;;;;;;;0.80;0.80;;;;;;;;;;6368042;22;20536;-75
2022/11/26 01:26:17;;;;;;;0.70;0.70;;;;;;;;;;6369792;22;20167;-75
2022/11/26 01:28:43;;;;;;;0.70;0.70;;;;;;;;;;6368799;22;20167;-75
2022/11/26 01:31:16;;;;;;;0.70;0.70;;;;;;;;;;6369149;22;20148;-75
2022/11/26 01:33:43;;;;;;;0.80;0.80;;;;;;;;;;6367746;22;20179;-75
2022/11/26 01:36:29;;;;;;;0.70;0.70;;;;;;;;;;6368445;22;20151;-75
2022/11/26 01:38:57;;;;;;;0.70;0.70;;;;;;;;;;6368060;22;20303;-75
2022/11/26 01:41:45;;;;;;;0.70;0.70;;;;;;;;;;6368527;22;20214;-75
2022/11/26 01:44:19;;;;;;;0.80;0.80;;;;;;;;;;6367690;22;20258;-75
2022/11/26 01:46:46;;;;;;;0.60;0.60;;;;;;;;;;6368667;22;20144;-75
2022/11/26 01:49:15;;;;;;;0.60;0.60;;;;;;;;;;6368537;22;20164;-75
2022/11/26 01:51:41;;;;;;;0.70;0.70;;;;;;;;;;6368492;22;20152;-75
2022/11/26 01:54:07;;;;;;;0.70;0.70;;;;;;;;;;6367703;22;20227;-75
2022/11/26 01:56:36;;;;;;;0.70;0.70;;;;;;;;;;6368085;22;20597;-75
2022/11/26 01:59:02;;;;;;;0.60;0.60;;;;;;;;;;6368234;22;20156;-74
2022/11/26 02:01:29;;;;;;;0.70;0.70;;;;;;;;;;6368320;22;20233;-75
2022/11/26 02:04:01;;;;;;;0.60;0.60;;;;;;;;;;6367459;22;20242;-77
2022/11/26 02:06:30;;;;;;;0.70;0.70;;;;;;;;;;6368314;22;20140;-76
2022/11/26 02:08:58;;;;;;;0.70;0.70;;;;;;;;;;6368339;22;20590;-77
2022/11/26 02:11:24;;;;;;;0.70;0.70;;;;;;;;;;6367859;22;20657;-76
2022/11/26 02:13:54;;;;;;;0.70;0.70;;;;;;;;;;6367591;22;20171;-76
2022/11/26 02:16:29;;;;;;;0.70;0.70;;;;;;;;;;6367840;22;20147;-76
2022/11/26 02:19:15;;;;;;;0.70;0.70;;;;;;;;;;6368166;22;20600;-76
2022/11/26 02:21:45;;;;;;;0.70;0.70;;;;;;;;;;6367496;22;20239;-76
2022/11/26 02:24:30;;;;;;;0.70;0.70;;;;;;;;;;6367171;22;20633;-77
2022/11/26 02:26:59;;;;;;;0.60;0.60;;;;;;;;;;6367699;22;20604;-77
2022/11/26 02:29:30;;;;;;;0.60;0.60;;;;;;;;;;6340137;22;20588;-77
2022/11/26 02:31:59;;;;;;;0.80;0.80;;;;;;;;;;6368250;22;20144;-77
2022/11/26 02:34:33;;;;;;;0.63;0.63;;;;;;;;;;6370322;22;20156;-77
2022/11/26 02:36:59;;;;;;;0.80;0.80;;;;;;;;;;6370318;22;20139;-77
2022/11/26 02:39:26;;;;;;;0.63;0.63;;;;;;;;;;6370269;22;20196;-77
2022/11/26 02:41:54;;;;;;;0.60;0.60;;;;;;;;;;6370435;22;20185;-77
2022/11/26 02:44:23;;;;;;;0.70;0.70;;;;;;;;;;6369803;22;20188;-76
2022/11/26 02:46:51;;;;;;;0.60;0.60;;;;;;;;;;6369801;22;20562;-77
2022/11/26 02:49:20;;;;;;;0.73;0.73;;;;;;;;;;6370123;22;20144;-77
2022/11/26 02:51:49;;;;;;;0.67;0.67;;;;;;;;;;6370163;22;20147;-76
2022/11/26 02:54:15;;;;;;;0.70;0.70;;;;;;;;;;6369522;22;20547;-76
2022/11/26 02:56:41;;;;;;;0.60;0.60;;;;;;;;;;6369789;22;20162;-76
2022/11/26 02:59:07;;;;;;;0.70;0.70;;;;;;;;;;6370072;22;20147;-76
2022/11/26 03:01:39;;;;;;;0.80;0.80;;;;;;;;;;6369927;22;20184;-75
2022/11/26 03:04:08;;;;;;;0.70;0.70;;;;;;;;;;6369535;22;20178;-75
2022/11/26 03:06:34;;;;;;;0.60;0.60;;;;;;;;;;6369783;22;20173;-75
2022/11/26 03:09:00;;;;;;;0.70;0.70;;;;;;;;;;6370177;22;20168;-75
2022/11/26 03:11:26;;;;;;;0.70;0.70;;;;;;;;;;6369634;22;20148;-76
2022/11/26 03:13:52;;;;;;;0.60;0.60;;;;;;;;;;6369038;22;20840;-76
2022/11/26 03:16:18;;;;;;;0.60;0.60;;;;;;;;;;6370043;22;20148;-76
2022/11/26 03:18:44;;;;;;;0.60;0.60;;;;;;;;;;6369673;22;20156;-76
2022/11/26 03:21:10;;;;;;;0.67;0.67;;;;;;;;;;6369552;22;20258;-76
2022/11/26 03:23:36;;;;;;;0.70;0.70;;;;;;;;;;6369325;22;20248;-76
2022/11/26 03:26:02;;;;;;;0.70;0.70;;;;;;;;;;6369583;22;20236;-76
2022/11/26 03:28:28;;;;;;;0.80;0.80;;;;;;;;;;6369839;22;20151;-75
2022/11/26 03:30:54;;;;;;;0.70;0.70;;;;;;;;;;6369988;22;20608;-76
2022/11/26 03:33:20;;;;;;;0.70;0.70;;;;;;;;;;6369448;22;20217;-75
2022/11/26 03:35:49;;;;;;;0.70;0.70;;;;;;;;;;6369979;22;20152;-76
2022/11/26 03:38:15;;;;;;;0.70;0.70;;;;;;;;;;6369439;22;20485;-76
2022/11/26 03:40:41;;;;;;;0.70;0.70;;;;;;;;;;6369576;22;20626;-76
2022/11/26 03:43:07;;;;;;;0.70;0.70;;;;;;;;;;6368954;22;20170;-75
2022/11/26 03:45:33;;;;;;;0.70;0.70;;;;;;;;;;6369421;22;20172;-74
2022/11/26 03:47:59;;;;;;;0.70;0.70;;;;;;;;;;6370052;22;20177;-75
2022/11/26 03:50:25;;;;;;;0.60;0.60;;;;;;;;;;6369746;22;20240;-75
2022/11/26 03:52:51;;;;;;;0.70;0.70;;;;;;;;;;6369036;22;20194;-74
2022/11/26 03:55:17;;;;;;;0.70;0.70;;;;;;;;;;6369296;22;20151;-74
2022/11/26 03:57:43;;;;;;;0.80;0.80;;;;;;;;;;6369564;22;20163;-75
2022/11/26 04:00:09;;;;;;;0.70;0.70;;;;;;;;;;6369048;22;20187;-75
2022/11/26 04:02:36;;;;;;;0.80;0.80;;;;;;;;;;6368888;22;20171;-75
2022/11/26 04:05:02;;;;;;;0.77;0.77;;;;;;;;;;6369665;22;20155;-75
2022/11/26 04:07:28;;;;;;;0.60;0.60;;;;;;;;;;6369488;22;20154;-75
2022/11/26 04:09:54;;;;;;;0.70;0.70;;;;;;;;;;6369109;22;20155;-75
2022/11/26 04:12:20;;;;;;;0.70;0.70;;;;;;;;;;6368752;22;20167;-75
2022/11/26 04:14:46;;;;;;;0.70;0.70;;;;;;;;;;6368976;22;20529;-75
2022/11/26 04:17:12;;;;;;;0.70;0.70;;;;;;;;;;6369207;22;20158;-75
2022/11/26 04:19:38;;;;;;;0.70;0.70;;;;;;;;;;6369511;22;20144;-75
2022/11/26 04:22:04;;;;;;;0.67;0.67;;;;;;;;;;6368903;22;20693;-75
2022/11/26 04:24:30;;;;;;;0.67;0.67;;;;;;;;;;6369439;22;20205;-75
2022/11/26 04:26:56;;;;;;;0.67;0.67;;;;;;;;;;6369342;22;20152;-75
2022/11/26 04:29:21;;;;;;;0.70;0.70;;;;;;;;;;6368825;22;20156;-75
2022/11/26 04:31:47;;;;;;;0.57;0.57;;;;;;;;;;6369111;22;20148;-75
2022/11/26 04:34:13;;;;;;;0.70;0.70;;;;;;;;;;6368523;22;20521;-75
2022/11/26 04:36:39;;;;;;;0.73;0.73;;;;;;;;;;6369059;22;20155;-76
2022/11/26 04:39:05;;;;;;;0.70;0.70;;;;;;;;;;6369135;22;20148;-75
2022/11/26 04:41:31;;;;;;;0.80;0.80;;;;;;;;;;6368856;22;20240;-75
2022/11/26 04:43:57;;;;;;;0.70;0.70;;;;;;;;;;6368092;22;20187;-75
2022/11/26 04:46:23;;;;;;;0.77;0.77;;;;;;;;;;6368700;22;20223;-75
2022/11/26 04:48:49;;;;;;;0.60;0.60;;;;;;;;;;6368592;22;20152;-75
2022/11/26 04:51:15;;;;;;;0.70;0.70;;;;;;;;;;6368523;22;20480;-75
2022/11/26 04:53:41;;;;;;;0.70;0.70;;;;;;;;;;6368100;22;20179;-75
2022/11/26 04:56:07;;;;;;;0.70;0.70;;;;;;;;;;6368496;22;20151;-75
2022/11/26 04:58:33;;;;;;;0.80;0.80;;;;;;;;;;6368520;22;20152;-75
2022/11/26 05:00:59;;;;;;;0.70;0.70;;;;;;;;;;6368787;22;20179;-75
2022/11/26 05:03:25;;;;;;;0.70;0.70;;;;;;;;;;6367767;22;20563;-75
2022/11/26 05:05:51;;;;;;;0.80;0.80;;;;;;;;;;6368691;22;20179;-75
2022/11/26 05:08:17;;;;;;;0.70;0.70;;;;;;;;;;6368926;22;20148;-75
2022/11/26 05:10:43;;;;;;;0.80;0.80;;;;;;;;;;6368603;22;20620;-75
2022/11/26 05:13:09;;;;;;;0.73;0.73;;;;;;;;;;6367725;22;20168;-76
2022/11/26 05:15:35;;;;;;;0.70;0.70;;;;;;;;;;6368385;22;20148;-75
2022/11/26 05:18:01;;;;;;;0.70;0.70;;;;;;;;;;6368332;22;20155;-76
2022/11/26 05:20:27;;;;;;;0.80;0.80;;;;;;;;;;6368629;22;20175;-75
2022/11/26 05:22:53;;;;;;;0.70;0.70;;;;;;;;;;6367586;22;20602;-75
2022/11/26 05:25:19;;;;;;;0.90;0.90;;;;;;;;;;6368591;22;20151;-75
2022/11/26 05:27:45;;;;;;;0.70;0.70;;;;;;;;;;6368496;22;20167;-75
2022/11/26 05:30:11;;;;;;;0.80;0.80;;;;;;;;;;6368569;22;20147;-76
2022/11/26 05:32:37;;;;;;;0.70;0.70;;;;;;;;;;6367779;22;20255;-76
2022/11/26 05:35:04;;;;;;;0.80;0.80;;;;;;;;;;6368451;22;20167;-75
2022/11/26 05:37:30;;;;;;;0.80;0.80;;;;;;;;;;6368521;22;20148;-76
2022/11/26 05:39:56;;;;;;;0.70;0.70;;;;;;;;;;6368447;22;20162;-75
2022/11/26 05:42:22;;;;;;;0.80;0.80;;;;;;;;;;6367844;22;20213;-75
2022/11/26 05:44:48;;;;;;;0.70;0.70;;;;;;;;;;6368133;22;20164;-75
2022/11/26 05:47:14;;;;;;;0.70;0.70;;;;;;;;;;6368662;22;20231;-76
2022/11/26 05:49:40;;;;;;;0.90;0.90;;;;;;;;;;6368243;22;20156;-75
2022/11/26 05:52:06;;;;;;;0.90;0.90;;;;;;;;;;6368575;22;20175;-75
2022/11/26 05:54:32;;;;;;;0.90;0.90;;;;;;;;;;6369464;22;20590;-76
2022/11/26 05:56:58;;;;;;;0.60;0.60;;;;;;;;;;6369110;22;20155;-75
2022/11/26 05:59:24;;;;;;;0.80;0.80;;;;;;;;;;6368703;22;20155;-75
2022/11/26 06:01:50;;;;;;;0.80;0.80;;;;;;;;;;6367837;22;20185;-75
2022/11/26 06:04:16;;;;;;;0.70;0.70;;;;;;;;;;6367702;22;20225;-76
2022/11/26 06:06:42;;;;;;;0.70;0.70;;;;;;;;;;6368332;22;20148;-74
2022/11/26 06:09:08;;;;;;;0.70;0.70;;;;;;;;;;6368269;22;20193;-75
2022/11/26 06:11:34;;;;;;;0.80;0.80;;;;;;;;;;6368264;22;20524;-75
2022/11/26 06:14:00;;;;;;;0.70;0.70;;;;;;;;;;6367675;22;20164;-77
2022/11/26 06:16:26;;;;;;;0.70;0.70;;;;;;;;;;6368437;22;20144;-75
2022/11/26 06:18:52;;;;;;;0.80;0.80;;;;;;;;;;6368465;22;20152;-77
2022/11/26 06:21:18;;;;;;;0.70;0.70;;;;;;;;;;6368175;22;20305;-76
2022/11/26 06:23:44;;;;;;;0.80;0.80;;;;;;;;;;6367868;22;20628;-75
2022/11/26 06:26:11;;;;;;;0.80;0.80;;;;;;;;;;6368381;22;20156;-75
2022/11/26 06:28:37;;;;;;;0.73;0.73;;;;;;;;;;6368211;22;20148;-75
2022/11/26 06:31:03;;;;;;;0.70;0.70;;;;;;;;;;6367739;22;20155;-75
2022/11/26 06:33:29;;;;;;;0.90;0.90;;;;;;;;;;6367732;22;20164;-76
2022/11/26 06:35:59;;;;;;;0.80;0.80;;;;;;;;;;6367753;22;20155;-75
2022/11/26 06:38:25;;;;;;;0.70;0.70;;;;;;;;;;6368552;22;20152;-75
2022/11/26 06:40:59;;;;;;;0.70;0.70;;;;;;;;;;6368179;22;20194;-75
2022/11/26 06:43:26;;;;;;;0.70;0.70;;;;;;;;;;6367548;22;20217;-77
2022/11/26 06:45:52;;;;;;;0.90;0.90;;;;;;;;;;6368531;22;20154;-76
2022/11/26 06:48:18;;;;;;;0.70;0.70;;;;;;;;;;6368212;22;20227;-75
2022/11/26 06:50:44;;;;;;;0.90;0.90;;;;;;;;;;6367913;22;20171;-75
2022/11/26 06:53:10;;;;;;;0.77;0.77;;;;;;;;;;6367754;22;20393;-77
2022/11/26 06:55:36;;;;;;;0.80;0.80;;;;;;;;;;6368162;22;20144;-75
2022/11/26 06:58:02;;;;;;;0.90;0.90;;;;;;;;;;6368184;22;20151;-75
2022/11/26 07:00:28;;;;;;;0.70;0.70;;;;;;;;;;6368014;22;20187;-75
2022/11/26 07:02:54;;;;;;;0.77;0.77;;;;;;;;;;6367216;22;20254;-75
2022/11/26 07:05:20;;;;;;;0.80;0.80;;;;;;;;;;6367584;22;20262;-75
2022/11/26 07:07:46;;;;;;;0.77;0.77;;;;;;;;;;6367890;22;20231;-74
2022/11/26 07:10:12;;;;;;;0.80;0.80;;;;;;;;;;6368185;22;20155;-75
2022/11/26 07:12:38;;;;;;;0.80;0.80;;;;;;;;;;6367065;22;20168;-75
2022/11/26 07:15:04;;;;;;;0.60;0.60;;;;;;;;;;6368594;22;20447;-78
2022/11/26 07:17:30;;;;;;;0.80;0.80;;;;;;;;;;6368032;22;20235;-76
2022/11/26 07:19:56;;;;;;;0.80;0.80;;;;;;;;;;6369849;22;20191;-76
2022/11/26 07:22:22;;;;;;;0.80;0.80;;;;;;;;;;6369108;22;20168;-76
2022/11/26 07:24:48;;;;;;;0.70;0.70;;;;;;;;;;6370346;22;20510;-76
2022/11/26 07:27:14;;;;;;;0.90;0.90;;;;;;;;;;6371059;22;20148;-77
2022/11/26 07:29:40;;;;;;;0.77;0.77;;;;;;;;;;6370786;22;20152;-76
2022/11/26 07:32:06;;;;;;;0.70;0.70;;;;;;;;;;6341172;22;20151;-77
2022/11/26 07:34:32;;;;;;;0.80;0.80;;;;;;;;;;6370338;22;20160;-76
2022/11/26 07:36:58;;;;;;;0.80;0.80;;;;;;;;;;6370181;22;20660;-77
2022/11/26 07:39:24;;;;;;;0.80;0.80;;;;;;;;;;6370195;22;20148;-77
2022/11/26 07:41:50;;;;;;;0.80;0.80;;;;;;;;;;6370307;22;20183;-77
2022/11/26 07:44:16;;;;;;;0.70;0.70;;;;;;;;;;6368973;22;20273;-74
2022/11/26 07:46:42;;;;;;;0.60;0.60;;;;;;;;;;6369312;22;20254;-77
2022/11/26 07:49:07;;;;;;;0.70;0.70;;;;;;;;;;6370671;22;20223;-76
2022/11/26 07:51:35;;;;;;;0.70;0.70;;;;;;;;;;6371040;22;20475;-76
2022/11/26 07:54:03;;;;;;;0.63;0.63;;;;;;;;;;6368514;22;20186;-74
2022/11/26 07:56:29;;;;;;;0.77;0.77;;;;;;;;;;6369851;22;20197;-76
2022/11/26 07:58:55;;;;;;;0.73;0.73;;;;;;;;;;6369667;22;20148;-76
2022/11/26 08:01:22;;;;;;;0.67;0.67;;;;;;;;;;6369237;22;20490;-75
2022/11/26 08:03:49;;;;;;;0.63;0.63;;;;;;;;;;6369510;22;20250;-76
2022/11/26 08:06:17;;;;;;;0.70;0.70;;;;;;;;;;6369143;22;20562;-77
2022/11/26 08:08:43;;;;;;;0.70;0.70;;;;;;;;;;6369540;22;20484;-76
2022/11/26 08:11:19;;;;;;;0.70;0.70;;;;;;;;;;6369299;22;20167;-77
2022/11/26 08:13:46;;;;;;;0.80;0.80;;;;;;;;;;6368185;22;20656;-76
2022/11/26 08:16:12;;;;;;;0.77;0.77;;;;;;;;;;6369991;22;20148;-76
2022/11/26 08:18:39;;;;;;;0.70;0.70;;;;;;;;;;6368871;22;20468;-76
2022/11/26 08:21:05;;;;;;;0.70;0.70;;;;;;;;;;6367112;22;20187;-76
2022/11/26 08:23:31;;;;;;;0.80;0.80;;;;;;;;;;6368159;22;20176;-76
2022/11/26 08:25:57;;;;;;;0.70;0.70;;;;;;;;;;6368595;22;20193;-76
2022/11/26 08:28:24;;;;;;;0.70;0.70;;;;;;;;;;6368712;22;20156;-76
2022/11/26 08:30:50;;;;;;;0.70;0.70;;;;;;;;;;6368502;22;20226;-76
2022/11/26 08:33:16;;;;;;;0.77;0.77;;;;;;;;;;6368058;22;20594;-77
2022/11/26 08:35:42;;;;;;;0.60;0.60;;;;;;;;;;6368652;22;20148;-77
2022/11/26 08:38:08;;;;;;;0.70;0.70;;;;;;;;;;6369123;22;20602;-77
2022/11/26 08:40:34;;;;;;;0.57;0.57;;;;;;;;;;6369023;22;20187;-77
2022/11/26 08:42:59;;;;;;;0.60;0.60;;;;;;;;;;6368654;22;20206;-77
2022/11/26 08:45:25;;;;;;;0.70;0.70;;;;;;;;;;6369026;22;20185;-77
2022/11/26 08:47:51;;;;;;;0.70;0.70;;;;;;;;;;6368577;22;20497;-77
2022/11/26 08:50:19;;;;;;;0.70;0.70;;;;;;;;;;6368798;22;20148;-77
2022/11/26 08:52:45;;;;;;;0.70;0.70;;;;;;;;;;6367547;22;20178;-77
2022/11/26 08:55:11;;;;;;;0.70;0.70;;;;;;;;;;6368684;22;20229;-77
2022/11/26 08:57:37;;;;;;;0.63;0.63;;;;;;;;;;6368710;22;20205;-77
2022/11/26 09:00:04;;;;;;;0.70;0.70;;;;;;;;;;6368951;22;20633;-77
2022/11/26 09:02:30;;;;;;;0.80;0.80;;;;;;;;;;6368202;22;20179;-77
2022/11/26 09:04:56;;;;;;;0.70;0.70;;;;;;;;;;6368853;22;20201;-77
2022/11/26 09:07:22;;;;;;;0.80;0.80;;;;;;;;;;6368451;22;20156;-77
2022/11/26 09:09:48;;;;;;;0.70;0.70;;;;;;;;;;6368901;22;20147;-77
2022/11/26 09:12:14;;;;;;;0.70;0.70;;;;;;;;;;6368185;22;20152;-77
2022/11/26 09:14:40;;;;;;;0.70;0.70;;;;;;;;;;6368980;22;20156;-77
2022/11/26 09:17:08;;;;;;;0.60;0.60;;;;;;;;;;6369385;22;20144;-77
2022/11/26 09:19:34;;;;;;;0.70;0.70;;;;;;;;;;6369165;22;20151;-77
2022/11/26 09:22:00;;;;;;;0.80;0.80;;;;;;;;;;6368609;22;20203;-77
2022/11/26 09:24:26;;;;;;;0.70;0.70;;;;;;;;;;6369503;22;20151;-77
2022/11/26 09:26:52;;;;;;;0.60;0.60;;;;;;;;;;6369714;22;20148;-77
2022/11/26 09:29:20;;;;;;;0.70;0.70;;;;;;;;;;6368914;22;20148;-77
2022/11/26 09:31:46;;;;;;;0.50;0.50;;;;;;;;;;6368706;22;20230;-76
2022/11/26 09:34:12;;;;;;;0.60;0.60;;;;;;;;;;6368135;22;20173;-77
2022/11/26 09:36:38;;;;;;;0.60;0.60;;;;;;;;;;6369089;22;20171;-77
2022/11/26 09:39:04;;;;;;;0.77;0.77;;;;;;;;;;6370182;22;20164;-77
2022/11/26 09:41:38;;;;;;;0.40;0.40;;;;;;;;;;6369791;22;20694;-77
2022/11/26 09:44:30;;;;;;;0.60;0.60;;;;;;;;;;6369992;22;20180;-77
2022/11/26 09:47:11;;;;;;;0.60;0.60;;;;;;;;;;6365598;22;20491;-77
2022/11/26 09:49:49;;;;;;;0.50;0.50;;;;;;;;;;6372214;22;20245;-79
2022/11/26 09:52:17;;;;;;;0.60;0.60;;;;;;;;;;6372739;22;20150;-78
2022/11/26 09:54:44;;;;;;;0.50;0.50;;;;;;;;;;6372870;22;20170;-77
2022/11/26 09:57:27;;;;;;;0.40;0.40;;;;;;;;;;6371570;22;20148;-78
2022/11/26 09:59:54;;;;;;;0.50;0.50;;;;;;;;;;6372791;22;20209;-78
2022/11/26 10:02:20;;;;;;;0.40;0.40;;;;;;;;;;6368492;22;20233;-77
2022/11/26 10:04:47;;;;;;;0.50;0.50;;;;;;;;;;6369079;22;20148;-77
2022/11/26 10:07:22;;;;;;;0.50;0.50;;;;;;;;;;6368837;22;20515;-76
2022/11/26 10:09:48;;;;;;;0.57;0.57;;;;;;;;;;6369150;22;20147;-78
2022/11/26 10:12:32;;;;;;;0.33;0.33;;;;;;;;;;6371582;22;20167;-78
2022/11/26 10:15:04;;;;;;;0.20;0.20;;;;;;;;;;6369672;22;20132;-76
2022/11/26 10:17:38;;;;;;;0.30;0.30;;;;;;;;;;6368189;22;20152;-76
2022/11/26 10:20:18;;;;;;;0.30;0.30;;;;;;;;;;6368178;22;20159;-76
2022/11/26 10:22:50;;;;;;;0.30;0.30;;;;;;;;;;6366544;22;20179;-76
2022/11/26 10:25:20;;;;;;;0.40;0.40;;;;;;;;;;6367856;22;20508;-76
2022/11/26 10:27:48;;;;;;;0.40;0.40;;;;;;;;;;6368259;22;20154;-76
2022/11/26 10:30:24;;;;;;;0.40;0.40;;;;;;;;;;6369046;22;20167;-77
2022/11/26 10:32:51;;;;;;;0.40;0.40;;;;;;;;;;6370240;22;20305;-79
2022/11/26 10:35:24;;;;;;;0.50;0.50;;;;;;;;;;6375987;22;20144;-79
2022/11/26 10:37:51;;;;;;;0.60;0.60;;;;;;;;;;6375061;22;20188;-77
2022/11/26 10:40:20;;;;;;;0.47;0.47;;;;;;;;;;6368608;22;20198;-76
2022/11/26 10:43:07;;;;;;;0.40;0.40;;;;;;;;;;6367747;22;20164;-76
2022/11/26 10:45:37;;;;;;;0.50;0.50;;;;;;;;;;6368047;22;20167;-76
2022/11/26 10:48:20;;;;;;;0.40;0.40;;;;;;;;;;6368288;22;20155;-77
2022/11/26 10:50:59;;;;;;;0.40;0.40;;;;;;;;;;6368554;22;20147;-76
2022/11/26 10:53:26;;;;;;;0.40;0.40;;;8.10;1.00;;;;;;6368593;22;20198;-76
2022/11/26 10:55:56;;;;;;;0.40;0.40;;;18.20;1.00;;;;;;6371368;22;20175;-77
2022/11/26 10:58:28;;;;;;;0.30;0.30;;;;;;;;;;6371279;22;20144;-77
2022/11/26 11:00:56;;;;;;;0.50;0.50;;;;;;;;;;6370741;22;20179;-76
2022/11/26 11:03:22;;;;;;;0.30;0.30;;;;;;;;;;6369135;22;20566;-75
2022/11/26 11:05:48;;;;;;;0.40;0.40;;;;;;;;;;6370219;22;20144;-76
2022/11/26 11:08:28;;;;;;;0.50;0.50;;;18.70;1.00;;;;;;6370296;22;20152;-75
2022/11/26 11:10:56;;;;;;;0.40;0.40;;;19.50;1.00;;;;;;6369833;22;20658;-75
2022/11/26 11:13:37;;;;;;;0.40;0.40;;;19.50;1.00;;;;;;6369082;22;20168;-74
2022/11/26 11:16:03;;;;;;;0.40;0.40;;;;;;;;;;6370268;22;20168;-75
2022/11/26 11:18:29;;;;;;;0.40;0.40;;;;;;;;;;6370251;22;20151;-75
2022/11/26 11:21:02;;;;;;;0.30;0.30;;;;;;;;;;6370100;22;20187;-74
2022/11/26 11:23:30;;;;;;;0.40;0.40;;;;;;;;;;6369460;22;20515;-75
2022/11/26 11:25:58;;;;;;;0.30;0.30;;;;;;;;;;6369478;22;20155;-76
2022/11/26 11:28:25;;;;;;;0.30;0.30;;;;;;;;;;6369409;22;20148;-75
2022/11/26 11:31:10;;;;;;;0.30;0.30;;;;;;;;;;6369907;22;20196;-74
2022/11/26 11:33:36;;;;;;;0.50;0.50;;;;;;;;;;6369460;22;20178;-74
2022/11/26 11:36:02;;;;;;;0.37;0.37;;;;;;;;;;6369938;22;20152;-74
2022/11/26 11:38:30;;;;;;;0.30;0.30;;;;;;;;;;6369584;22;20484;-75
2022/11/26 11:40:56;;;;;;;0.50;0.50;;;;;;;;;;6369822;22;20183;-74
2022/11/26 11:43:23;;;;;;;0.40;0.40;;;;;;;;;;6368933;22;20206;-73
2022/11/26 11:46:00;;;;;;;0.30;0.30;;;;;;;;;;6369834;22;20251;-75
2022/11/26 11:48:26;;;;;;;0.30;0.30;;;;;;;;;;6369178;22;20529;-76
2022/11/26 11:50:58;;;;;;;0.30;0.30;;;;;;;;;;6370162;22;20148;-76
2022/11/26 11:53:32;;;;;;;0.30;0.30;;;;;;;;;;6369049;22;20168;-75
2022/11/26 11:56:07;;;;;;;0.30;0.30;;;;;;;;;;6369523;22;20575;-76
2022/11/26 11:58:42;;;;;;;0.37;0.37;;;;;;;;;;6369749;22;20147;-76
2022/11/26 12:01:08;;;;;;;0.40;0.40;;;;;;;;;;6369968;22;20183;-75
2022/11/26 12:03:52;;;;;;;0.40;0.40;;;;;;;;;;6369125;22;20255;-75
2022/11/26 12:06:40;;;;;;;0.50;0.50;;;;;;;;;;6369787;22;20152;-76
2022/11/26 12:09:08;;;;;;;0.40;0.40;;;;;;;;;;6370059;22;20135;-76
2022/11/26 12:11:48;;;;;;;0.50;0.50;;;;;;;;;;6369660;22;20148;-76
2022/11/26 12:14:20;;;;;;;0.40;0.40;;;;;;;;;;6369161;22;20481;-76
2022/11/26 12:16:49;;;;;;;0.50;0.50;;;;;;;;;;6369481;22;20582;-76
2022/11/26 12:19:38;;;;;;;0.60;0.60;;;;;;;;;;6370650;22;20486;-77
2022/11/26 12:22:07;;;;;;;0.40;0.40;;;;;;;;;;6311126;22;20405;-77
2022/11/26 12:24:47;;;;;;;0.50;0.50;;;;;;;;;;6371004;22;20201;-77
2022/11/26 12:27:25;;;;;;;0.40;0.40;;;;;;;;;;6371068;22;20147;-78
2022/11/26 12:30:04;;;;;;;0.30;0.30;;;;;;;;;;6371171;22;20227;-77
2022/11/26 12:32:39;;;;;;;0.40;0.40;;;;;;;;;;6369286;22;20168;-76
2022/11/26 12:35:10;;;;;;;0.30;0.30;;;;;;;;;;6370787;22;20158;-77
2022/11/26 12:37:39;;;;;;;0.30;0.30;;;;;;;;;;6372023;22;20144;-78
2022/11/26 12:40:23;;;;;;;0.33;0.33;;;;;;;;;;6371838;22;20447;-78
2022/11/26 12:43:08;;;;;;;0.30;0.30;;;;;;;;;;6370550;22;20650;-78
2022/11/26 12:45:49;;;;;;;0.30;0.30;;;;;;;;;;6371005;22;20167;-77
2022/11/26 12:48:38;;;;;;;0.30;0.30;;;;;;;;;;6370620;22;20496;-78
2022/11/26 12:51:04;;;;;;;0.37;0.37;;;;;;;;;;6371556;22;20590;-79
2022/11/26 12:53:49;;;;;;;0.33;0.33;;;;;;;;;;6370384;22;20191;-77
2022/11/26 12:56:32;;;;;;;0.30;0.30;;;;;;;;;;6371145;22;20148;-78
2022/11/26 12:59:13;;;;;;;0.40;0.40;;;;;;;;;;6370069;22;20597;-78
2022/11/26 13:01:39;;;;;;;0.40;0.40;;;;;;;;;;6371014;22;20269;-78
2022/11/26 13:04:05;;;;;;;0.40;0.40;;;;;;;;;;6370796;22;20221;-78
2022/11/26 13:06:38;;;;;;;0.40;0.40;;;;;;;;;;6370981;22;20656;-78
2022/11/26 13:09:13;;;;;;;0.30;0.30;;;;;;;;;;6371718;22;20449;-78
2022/11/26 13:11:48;;;;;;;0.40;0.40;;;19.40;1.00;;;;;;6371643;22;20159;-78
2022/11/26 13:14:14;;;;;;;0.30;0.30;;;;;;;;;;6370903;22;20175;-78
2022/11/26 13:16:55;;;;;;;0.30;0.30;;;;;;;;;;6371878;22;20152;-78
2022/11/26 13:19:24;;;;;;;0.30;0.30;;;;;;;;;;6367174;22;20152;-80
2022/11/26 13:22:13;;;;;;;0.30;0.30;;;;;;;;;;6371271;22;20183;-78
2022/11/26 13:24:44;;;;;;;0.30;0.30;;;;;;;;;;6350719;22;20481;-78
2022/11/26 13:27:16;;;;;;;0.33;0.33;;;;;;;;;;6369924;22;20147;-78
2022/11/26 13:29:48;;;;;;;0.30;0.30;;;;;;;;;;6368590;22;20616;-78
2022/11/26 13:32:24;;;;;;;0.30;0.30;;;;;;;;;;6367610;22;20152;-78
2022/11/26 13:35:09;;;;;;;0.30;0.30;;;;;;;;;;6370249;22;20140;-79
2022/11/26 13:37:58;;;;;;;0.30;0.30;;;;;;;;;;6370196;22;20144;-78
2022/11/26 13:40:35;;;;;;;0.40;0.40;;;;;;;;;;6371515;22;20715;-78
2022/11/26 13:43:08;;;;;;;0.40;0.40;;;;;;;;;;6371039;22;20259;-79
2022/11/26 13:45:43;;;;;;;0.30;0.30;;;;;;;;;;6367260;22;20168;-78
2022/11/26 13:48:12;;;;;;;0.30;0.30;;;;;;;;;;6371329;22;20151;-79
2022/11/26 13:50:41;;;;;;;0.40;0.40;;;;;;;;;;6371424;22;20152;-78
2022/11/26 13:53:10;;;;;;;0.30;0.30;;;;;;;;;;6371294;22;20319;-80
2022/11/26 13:55:40;;;;;;;0.40;0.40;;;;;;;;;;6369096;22;20163;-77
2022/11/26 13:58:08;;;;;;;0.30;0.30;;;;;;;;;;6369819;22;20193;-79
2022/11/26 14:00:35;;;;;;;0.40;0.40;;;;;;;;;;6374055;22;20629;-80
2022/11/26 14:03:01;;;;;;;0.40;0.40;;;18.10;1.00;;;;;;6373528;22;20638;-79
2022/11/26 14:05:46;;;;;;;0.40;0.40;;;;;;;;;;6375081;22;20151;-80
2022/11/26 14:08:30;;;;;;;0.30;0.30;;;;;;;;;;6373744;22;20152;-79
2022/11/26 14:10:56;;;;;;;0.30;0.30;;;;;;;;;;6374761;22;20155;-77
2022/11/26 14:13:22;;;;;;;0.30;0.30;;;;;;;;;;6372525;22;20178;-79
2022/11/26 14:15:59;;;;;;;0.40;0.40;;;;;;;;;;6373387;22;20277;-77
2022/11/26 14:18:43;;;;;;;0.33;0.33;;;;;;;;;;6369466;22;20284;-80
2022/11/26 14:21:09;;;;;;;0.40;0.40;;;;;;;;;;6365811;22;20223;-80
2022/11/26 14:23:41;;;;;;;0.40;0.40;;;;;;;;;;6370528;22;20168;-77
2022/11/26 14:26:13;;;;;;;0.33;0.33;;;;;;;;;;6372139;22;20156;-78
2022/11/26 14:28:39;;;;;;;0.30;0.30;;;;;;;;;;6371288;22;20148;-77
2022/11/26 14:31:22;;;;;;;0.30;0.30;;;;;;;;;;6371062;22;20159;-78
2022/11/26 14:33:50;;;;;;;0.47;0.47;;;;;;;;;;6370047;22;20167;-78
2022/11/26 14:36:20;;;;;;;0.50;0.50;;;;;;;;;;6370998;22;20183;-78
2022/11/26 14:38:46;;;;;;;0.43;0.43;;;;;;;;;;6370925;22;20148;-79
2022/11/26 14:41:12;;;;;;;0.40;0.40;;;;;;;;;;6370793;22;20179;-77
2022/11/26 14:43:38;;;;;;;0.50;0.50;;;;;;;;;;6372509;22;20210;-77
2022/11/26 14:46:16;;;;;;;0.50;0.50;;;;;;;;;;6373253;22;20144;-77
2022/11/26 14:48:43;;;;;;;0.40;0.40;;;;;;;;;;6369582;22;20175;-77
2022/11/26 14:51:09;;;;;;;0.40;0.40;;;;;;;;;;6369376;22;20151;-77
2022/11/26 14:53:36;;;;;;;0.50;0.50;;;;;;;;;;6368635;22;20163;-78
2022/11/26 14:56:02;;;;;;;0.40;0.40;;;;;;;;;;6369709;22;20177;-78